Time;durP1;ratioP1;P1;durP2;ratioP2;P2;SDS_P1;SDS_P2;PMS_P1;PMS_P2;Temp;Humidity;BMP_temperature;BMP_pressure;BME280_temperature;BME280_humidity;BME280_pressure;Samples;Min_cycle;Max_cycle;Signal;HPM_P1;HPM_P2
2023/11/16 09:17:59;;;;;;;5.37;1.40;;;8.00;99.90;;;;;;4738240;23;20827;-74
2023/11/16 09:20:28;;;;;;;2.73;1.20;;;7.80;99.90;;;;;;4883789;29;20219;-73
2023/11/16 09:22:57;;;;;;;4.67;1.53;;;7.70;99.90;;;;;;4899497;29;20245;-74
2023/11/16 09:25:29;;;;;;;3.27;1.10;;;7.80;99.90;;;;;;4883285;29;20254;-74
2023/11/16 09:27:56;;;;;;;4.77;1.27;;;7.70;99.90;;;;;;4870084;29;20224;-73
2023/11/16 09:30:26;;;;;;;3.30;1.40;;;7.80;99.90;;;;;;4864471;29;20239;-74
2023/11/16 09:32:54;;;;;;;4.43;1.30;;;7.90;99.90;;;;;;4880927;29;20211;-73
2023/11/16 09:35:22;;;;;;;2.53;0.90;;;8.00;99.90;;;;;;4880794;29;20231;-74
2023/11/16 09:37:51;;;;;;;4.40;1.10;;;8.10;99.90;;;;;;4880440;29;20218;-74
2023/11/16 09:40:21;;;;;;;4.77;1.00;;;8.20;99.90;;;;;;4880840;29;20275;-73
2023/11/16 09:42:56;;;;;;;2.30;1.10;;;8.40;99.90;;;;;;4881132;29;20215;-74
2023/11/16 09:45:27;;;;;;;3.43;1.10;;;8.40;99.90;;;;;;4880231;29;20238;-74
2023/11/16 09:48:01;;;;;;;3.73;1.13;;;8.50;99.90;;;;;;4880606;29;20219;-74
2023/11/16 09:50:31;;;;;;;4.47;1.30;;;8.80;99.90;;;;;;4881070;29;20238;-74
2023/11/16 09:53:00;;;;;;;2.77;1.03;;;9.10;99.90;;;;;;4879761;29;20222;-74
2023/11/16 09:55:30;;;;;;;9.63;2.07;;;9.20;99.90;;;;;;4879571;29;20229;-74
2023/11/16 09:58:04;;;;;;;4.73;1.47;;;9.20;99.90;;;;;;4880408;29;20211;-74
2023/11/16 10:00:34;;;;;;;2.97;1.40;;;9.20;99.90;;;;;;4880201;29;20571;-74
2023/11/16 10:03:05;;;;;;;3.10;1.30;;;9.30;99.90;;;;;;4880505;29;20280;-74
2023/11/16 10:05:36;;;;;;;3.87;1.33;;;9.50;99.90;;;;;;4880760;29;20307;-74
2023/11/16 10:08:08;;;;;;;10.53;1.50;;;9.50;99.90;;;;;;4880623;29;20207;-74
2023/11/16 10:10:35;;;;;;;9.23;2.40;;;9.40;99.90;;;;;;4880552;29;20235;-74
2023/11/16 10:13:04;;;;;;;4.93;2.47;;;9.50;99.90;;;;;;4880354;29;20294;-74
2023/11/16 10:15:32;;;;;;;1.13;0.80;;;9.60;99.90;;;;;;4880562;29;20322;-74
2023/11/16 10:18:01;;;;;;;4.00;1.40;;;9.70;99.90;;;;;;4880507;29;20590;-74
2023/11/16 10:20:29;;;;;;;9.53;6.17;;;9.80;99.90;;;;;;4880414;29;20211;-73
2023/11/16 10:22:57;;;;;;;3.37;1.53;;;9.90;99.90;;;;;;4880049;29;20263;-74
2023/11/16 10:25:24;;;;;;;3.50;1.33;;;9.80;99.90;;;;;;4879798;29;20227;-73
2023/11/16 10:27:51;;;;;;;6.27;1.83;;;9.70;99.90;;;;;;4879680;29;20218;-74
2023/11/16 10:30:18;;;;;;;2.00;1.10;;;9.60;99.90;;;;;;4879926;29;20217;-74
2023/11/16 10:32:46;;;;;;;5.07;1.83;;;9.60;99.90;;;;;;4879732;29;20218;-74
2023/11/16 10:35:17;;;;;;;2.73;1.10;;;9.20;99.90;;;;;;4879643;29;20235;-74
2023/11/16 10:37:45;;;;;;;4.63;1.30;;;9.10;99.90;;;;;;4880061;29;20275;-74
2023/11/16 10:40:13;;;;;;;3.40;1.23;;;9.10;99.90;;;;;;4879645;29;20296;-74
2023/11/16 10:42:41;;;;;;;3.20;1.10;;;9.20;99.90;;;;;;4879382;29;20211;-74
2023/11/16 10:45:14;;;;;;;3.93;1.37;;;9.30;99.90;;;;;;4879740;29;20250;-74
2023/11/16 10:47:43;;;;;;;3.50;1.20;;;9.40;99.90;;;;;;4879627;29;20634;-74
2023/11/16 10:50:11;;;;;;;1.60;1.00;;;9.40;99.90;;;;;;4879853;29;20608;-74
2023/11/16 10:52:40;;;;;;;4.07;1.20;;;9.40;99.90;;;;;;4879367;29;20215;-73
2023/11/16 10:55:20;;;;;;;3.27;1.50;;;9.20;99.90;;;;;;4879325;29;20235;-74
2023/11/16 10:57:52;;;;;;;4.00;1.47;;;9.20;99.90;;;;;;4878983;29;20765;-74
2023/11/16 11:00:20;;;;;;;3.03;1.50;;;9.10;99.90;;;;;;4879302;29;20301;-74
2023/11/16 11:02:49;;;;;;;2.60;1.60;;;9.00;99.90;;;;;;4879286;29;20211;-74
2023/11/16 11:05:19;;;;;;;2.80;1.43;;;8.90;99.90;;;;;;4879270;29;20230;-74
2023/11/16 11:07:50;;;;;;;7.90;1.60;;;9.00;99.90;;;;;;4879172;29;20215;-74
2023/11/16 11:10:23;;;;;;;6.87;1.50;;;8.90;99.90;;;;;;4879557;29;20214;-74
2023/11/16 11:12:50;;;;;;;5.97;1.40;;;9.10;99.90;;;;;;4879187;29;20511;-74
2023/11/16 11:15:29;;;;;;;2.00;1.20;;;9.10;99.90;;;;;;4879246;29;20776;-74
2023/11/16 11:17:56;;;;;;;3.60;1.40;;;9.20;99.90;;;;;;4878834;29;20222;-74
2023/11/16 11:20:36;;;;;;;2.03;1.20;;;9.10;99.90;;;;;;4879283;29;20210;-74
2023/11/16 11:23:08;;;;;;;3.03;1.80;;;9.20;99.90;;;;;;4879363;29;20579;-74
2023/11/16 11:25:41;;;;;;;3.63;1.57;;;9.10;99.90;;;;;;4878947;29;20238;-74
2023/11/16 11:28:08;;;;;;;2.73;1.43;;;9.00;99.90;;;;;;4878910;29;20218;-74
2023/11/16 11:30:37;;;;;;;4.30;1.27;;;8.80;99.90;;;;;;4878648;29;20684;-74
2023/11/16 11:33:07;;;;;;;4.27;1.30;;;8.70;99.90;;;;;;4878661;29;20678;-74
2023/11/16 11:35:37;;;;;;;8.10;1.60;;;8.70;99.90;;;;;;4878101;29;20237;-73
2023/11/16 11:38:19;;;;;;;4.47;1.53;;;8.70;99.90;;;;;;4878536;29;20218;-74
2023/11/16 11:40:52;;;;;;;2.90;1.40;;;8.80;99.90;;;;;;4878254;29;20242;-74
2023/11/16 11:43:20;;;;;;;7.47;1.20;;;9.00;99.90;;;;;;4878386;29;20219;-74
2023/11/16 11:45:47;;;;;;;3.80;1.70;;;9.20;99.90;;;;;;4878363;29;20235;-74
2023/11/16 11:48:15;;;;;;;3.47;1.60;;;9.30;99.90;;;;;;4878156;29;20684;-74
2023/11/16 11:50:42;;;;;;;2.57;1.57;;;9.40;99.90;;;;;;4878134;29;20224;-74
2023/11/16 11:53:16;;;;;;;3.23;1.00;;;9.50;99.90;;;;;;4877962;29;20310;-73
2023/11/16 11:55:43;;;;;;;2.13;1.00;;;9.50;99.90;;;;;;4878498;29;20235;-74
2023/11/16 11:58:12;;;;;;;3.33;1.20;;;9.40;99.90;;;;;;4878796;29;20211;-74
2023/11/16 12:00:47;;;;;;;3.13;1.10;;;9.40;99.90;;;;;;4878814;29;20302;-74
2023/11/16 12:03:15;;;;;;;6.17;1.93;;;9.50;99.90;;;;;;4878848;29;20221;-74
2023/11/16 12:05:42;;;;;;;7.50;1.90;;;9.60;99.90;;;;;;4878934;29;20263;-74
2023/11/16 12:08:10;;;;;;;3.07;1.20;;;9.60;99.90;;;;;;4878794;29;20214;-74
2023/11/16 12:10:37;;;;;;;2.37;1.40;;;9.70;99.90;;;;;;4878500;29;20243;-74
2023/11/16 12:13:07;;;;;;;3.10;1.53;;;9.60;99.90;;;;;;4878695;29;20211;-74
2023/11/16 12:15:36;;;;;;;2.07;1.30;;;9.50;99.90;;;;;;4878417;29;20711;-74
2023/11/16 12:18:07;;;;;;;4.33;1.40;;;9.40;99.90;;;;;;4879070;29;20778;-74
2023/11/16 12:20:37;;;;;;;3.37;1.50;;;9.20;99.90;;;;;;4881825;29;20275;-74
2023/11/16 12:23:08;;;;;;;4.90;1.63;;;9.10;99.90;;;;;;4882281;29;20219;-74
2023/11/16 12:25:37;;;;;;;4.97;1.43;;;9.10;99.90;;;;;;4882349;29;20227;-75
2023/11/16 12:28:05;;;;;;;3.07;1.60;;;9.10;99.90;;;;;;4882035;29;20211;-73
2023/11/16 12:30:37;;;;;;;4.77;1.63;;;9.30;99.90;;;;;;4881903;29;20211;-74
2023/11/16 12:33:07;;;;;;;7.73;1.70;;;9.20;99.90;;;;;;4881444;29;20281;-74
2023/11/16 12:35:37;;;;;;;2.90;1.30;;;9.40;99.90;;;;;;4882105;29;20237;-74
2023/11/16 12:38:05;;;;;;;3.40;1.40;;;9.50;99.90;;;;;;4882018;29;20215;-74
2023/11/16 12:40:32;;;;;;;6.27;1.80;;;9.40;99.90;;;;;;4881780;29;20207;-74
2023/11/16 12:43:00;;;;;;;8.60;1.20;;;9.40;99.90;;;;;;4881458;29;20215;-74
2023/11/16 12:45:28;;;;;;;5.07;1.60;;;9.40;99.90;;;;;;4882855;29;20322;-74
2023/11/16 12:47:56;;;;;;;4.93;2.10;;;9.40;99.90;;;;;;4881862;29;20215;-74
2023/11/16 12:50:23;;;;;;;3.30;1.60;;;9.40;99.90;;;;;;4881548;29;20310;-74
2023/11/16 12:52:51;;;;;;;5.63;1.60;;;9.40;99.90;;;;;;4881623;29;20242;-74
2023/11/16 12:55:18;;;;;;;2.40;1.70;;;9.60;99.90;;;;;;4881378;29;20710;-74
2023/11/16 12:57:46;;;;;;;5.93;1.20;;;9.60;99.90;;;;;;4881677;29;20298;-74
2023/11/16 13:00:17;;;;;;;4.17;2.03;;;9.70;99.90;;;;;;4881318;29;20219;-74
2023/11/16 13:02:44;;;;;;;4.23;2.00;;;9.80;99.90;;;;;;4881227;29;20255;-74
2023/11/16 13:05:17;;;;;;;2.43;1.30;;;9.80;99.90;;;;;;4881557;29;20325;-74
2023/11/16 13:07:44;;;;;;;5.07;1.73;;;9.80;99.90;;;;;;4881266;29;20636;-74
2023/11/16 13:10:11;;;;;;;6.60;1.53;;;9.80;99.90;;;;;;4881387;29;20302;-75
2023/11/16 13:12:38;;;;;;;5.27;1.50;;;9.80;99.90;;;;;;4878073;29;20717;-75
2023/11/16 13:15:06;;;;;;;5.10;2.07;;;9.70;99.90;;;;;;4882317;29;20709;-75
2023/11/16 13:17:33;;;;;;;7.03;1.53;;;9.40;99.90;;;;;;4880788;29;20211;-75
2023/11/16 13:20:01;;;;;;;5.93;2.10;;;9.50;99.90;;;;;;4877297;29;20441;-77
2023/11/16 13:22:31;;;;;;;4.27;1.60;;;9.50;99.90;;;;;;4878254;29;20306;-81
2023/11/16 13:24:59;;;;;;;4.07;1.97;;;9.70;99.90;;;;;;4878789;29;20721;-76
2023/11/16 13:27:26;;;;;;;6.07;1.70;;;9.50;99.90;;;;;;4879340;29;20211;-75
2023/11/16 13:29:53;;;;;;;6.27;1.67;;;9.70;99.90;;;;;;4878907;29;20310;-77
2023/11/16 13:32:20;;;;;;;4.80;1.83;;;9.50;99.90;;;;;;4878893;29;20629;-75
2023/11/16 13:34:48;;;;;;;5.87;1.63;;;9.40;99.90;;;;;;4878910;29;20590;-73
2023/11/16 13:37:15;;;;;;;5.20;1.70;;;9.40;99.90;;;;;;4878766;29;20211;-74
2023/11/16 13:39:43;;;;;;;3.83;1.47;;;9.50;99.90;;;;;;4878560;29;20302;-74
2023/11/16 13:42:12;;;;;;;7.90;2.47;;;9.50;99.90;;;;;;4878023;29;20765;-74
2023/11/16 13:44:39;;;;;;;5.13;1.90;;;9.40;99.90;;;;;;4878836;29;20231;-76
2023/11/16 13:47:06;;;;;;;3.23;1.37;;;9.30;99.90;;;;;;4879052;29;20210;-74
2023/11/16 13:49:33;;;;;;;5.17;1.53;;;9.20;99.90;;;;;;4878749;29;20314;-72
2023/11/16 13:52:00;;;;;;;4.47;1.70;;;9.20;99.90;;;;;;4877837;29;20302;-73
2023/11/16 13:54:27;;;;;;;3.87;1.93;;;9.30;99.90;;;;;;4878780;29;20237;-75
2023/11/16 13:56:55;;;;;;;8.77;3.33;;;9.20;99.90;;;;;;4878682;29;20747;-75
2023/11/16 13:59:22;;;;;;;6.23;2.13;;;9.10;99.90;;;;;;4878778;29;20217;-78
2023/11/16 14:01:49;;;;;;;4.60;1.90;;;9.10;99.90;;;;;;4878874;29;20305;-75
2023/11/16 14:04:16;;;;;;;5.17;2.43;;;9.20;99.90;;;;;;4878509;29;20265;-77
2023/11/16 14:06:43;;;;;;;3.97;2.07;;;9.40;99.90;;;;;;4879214;29;20219;-77
2023/11/16 14:09:13;;;;;;;4.40;1.87;;;9.60;99.90;;;;;;4878820;29;20214;-75
2023/11/16 14:11:40;;;;;;;4.30;2.53;;;9.60;99.90;;;;;;4879011;29;20231;-75
2023/11/16 14:14:11;;;;;;;3.57;1.90;;;9.60;99.90;;;;;;4875737;29;20270;-73
2023/11/16 14:16:38;;;;;;;3.50;2.07;;;9.60;99.90;;;;;;4878034;29;20295;-75
2023/11/16 14:19:06;;;;;;;6.53;1.90;;;9.70;99.90;;;;;;4877656;29;20275;-76
2023/11/16 14:21:34;;;;;;;5.93;2.10;;;9.70;99.90;;;;;;4878643;29;20567;-74
2023/11/16 14:24:05;;;;;;;4.17;1.87;;;9.80;99.90;;;;;;4877231;29;20231;-72
2023/11/16 14:26:34;;;;;;;4.20;2.00;;;9.80;99.90;;;;;;4887268;29;20224;-75
2023/11/16 14:29:00;;;;;;;4.13;2.17;;;9.90;99.90;;;;;;4898313;29;20219;-76
2023/11/16 14:31:29;;;;;;;5.83;2.00;;;9.70;99.90;;;;;;4897480;29;20263;-77
2023/11/16 14:33:56;;;;;;;7.07;2.30;;;9.40;99.90;;;;;;4888257;29;20686;-77
2023/11/16 14:36:23;;;;;;;4.37;1.77;;;9.40;99.90;;;;;;4883277;29;20564;-74
2023/11/16 14:38:50;;;;;;;6.70;1.77;;;9.50;99.90;;;;;;4881757;29;20278;-79
2023/11/16 14:41:17;;;;;;;3.97;1.70;;;9.50;99.90;;;;;;4878446;29;20217;-79
2023/11/16 14:43:44;;;;;;;5.00;2.07;;;9.30;99.90;;;;;;4878105;29;20249;-78
2023/11/16 14:46:10;;;;;;;11.20;2.07;;;9.30;99.90;;;;;;4877928;29;20306;-76
2023/11/16 14:48:39;;;;;;;2.60;1.80;;;9.20;99.90;;;;;;4877945;29;20235;-77
2023/11/16 14:51:07;;;;;;;4.17;1.77;;;9.20;99.90;;;;;;4878615;29;20294;-76
2023/11/16 14:53:34;;;;;;;4.30;2.10;;;9.30;99.90;;;;;;4877576;29;20235;-77
2023/11/16 14:56:02;;;;;;;5.17;2.10;;;9.30;99.90;;;;;;4878379;29;20302;-77
2023/11/16 14:58:29;;;;;;;4.23;1.40;;;9.40;99.90;;;;;;4877908;29;20663;-79
2023/11/16 15:00:57;;;;;;;10.23;2.57;;;9.20;99.90;;;;;;4877881;29;20211;-79
2023/11/16 15:03:24;;;;;;;6.67;1.57;;;9.10;99.90;;;;;;4878643;29;20685;-79
2023/11/16 15:05:53;;;;;;;6.17;1.90;;;8.90;99.90;;;;;;4878497;29;20262;-81
2023/11/16 15:08:20;;;;;;;5.60;2.10;;;9.00;99.90;;;;;;4879742;29;20213;-76
2023/11/16 15:10:46;;;;;;;4.30;1.70;;;9.00;99.90;;;;;;4878103;29;20207;-79
2023/11/16 15:13:13;;;;;;;3.93;1.90;;;9.00;99.90;;;;;;4877943;29;20285;-78
2023/11/16 15:15:40;;;;;;;5.93;2.00;;;9.20;99.90;;;;;;4917698;23;20316;-75
2023/11/16 15:18:07;;;;;;;7.00;1.60;;;9.30;99.90;;;;;;4907282;29;20261;-73
2023/11/16 15:20:36;;;;;;;5.63;1.80;;;9.30;99.90;;;;;;4896441;29;20573;-75
2023/11/16 15:23:04;;;;;;;2.50;1.50;;;9.30;99.90;;;;;;4897460;29;20730;-78
2023/11/16 15:25:31;;;;;;;5.40;2.03;;;9.10;99.90;;;;;;4882407;29;20275;-78
2023/11/16 15:27:58;;;;;;;7.80;1.70;;;9.10;99.90;;;;;;4878596;29;20256;-75
2023/11/16 15:30:25;;;;;;;4.33;1.67;;;9.20;99.90;;;;;;4886318;29;20297;-79
2023/11/16 15:32:53;;;;;;;3.63;1.80;;;9.10;99.90;;;;;;4892580;29;20288;-77
2023/11/16 15:35:20;;;;;;;4.63;1.40;;;9.00;99.90;;;;;;4878861;29;20661;-77
2023/11/16 15:37:48;;;;;;;3.50;1.60;;;8.90;99.90;;;;;;4878786;29;20203;-78
2023/11/16 15:40:17;;;;;;;2.80;1.70;;;9.10;99.90;;;;;;4878802;29;20215;-77
2023/11/16 15:42:44;;;;;;;6.93;1.90;;;9.20;99.90;;;;;;4883597;29;20207;-79
2023/11/16 15:45:13;;;;;;;3.63;1.73;;;9.10;99.90;;;;;;4878541;29;20243;-78
2023/11/16 15:47:40;;;;;;;4.43;2.23;;;9.20;99.90;;;;;;4878747;29;20211;-78
2023/11/16 15:50:07;;;;;;;6.50;1.87;;;9.10;99.90;;;;;;4878787;29;20219;-78
2023/11/16 15:52:34;;;;;;;4.23;1.60;;;9.10;99.90;;;;;;4885575;29;20274;-77
2023/11/16 15:55:02;;;;;;;5.07;1.77;;;9.20;99.90;;;;;;4882398;29;20231;-80
2023/11/16 15:57:30;;;;;;;6.57;2.23;;;9.10;99.90;;;;;;4893758;29;20301;-78
2023/11/16 15:59:57;;;;;;;4.13;2.10;;;9.20;99.90;;;;;;4882465;29;20211;-78
2023/11/16 16:02:27;;;;;;;5.50;2.83;;;9.10;99.90;;;;;;4887628;29;20678;-77
2023/11/16 16:04:54;;;;;;;6.60;2.10;;;9.10;99.90;;;;;;4900937;29;20249;-81
2023/11/16 16:07:22;;;;;;;5.10;1.90;;;9.20;99.90;;;;;;4900552;29;20682;-75
2023/11/16 16:09:49;;;;;;;5.03;2.13;;;9.00;99.90;;;;;;4882539;29;20299;-75
2023/11/16 16:12:16;;;;;;;5.30;1.90;;;9.00;99.90;;;;;;4892473;29;20360;-77
2023/11/16 16:14:45;;;;;;;5.20;2.03;;;8.90;99.90;;;;;;4883534;29;20714;-77
2023/11/16 16:17:12;;;;;;;7.67;1.67;;;8.80;99.90;;;;;;4882209;29;20239;-77
2023/11/16 16:19:39;;;;;;;7.90;2.40;;;8.80;99.90;;;;;;4881723;29;20608;-81
2023/11/16 16:22:06;;;;;;;6.73;2.00;;;9.00;99.90;;;;;;4885187;29;20221;-77
2023/11/16 16:24:33;;;;;;;8.07;1.80;;;9.20;99.90;;;;;;4899552;29;20267;-77
2023/11/16 16:27:04;;;;;;;11.70;3.50;;;9.20;99.90;;;;;;4900788;29;20624;-77
2023/11/16 16:29:31;;;;;;;3.47;1.83;;;9.40;99.90;;;;;;4886068;29;20210;-76
2023/11/16 16:32:00;;;;;;;7.53;2.50;;;9.30;99.90;;;;;;4883787;29;20215;-77
2023/11/16 16:34:28;;;;;;;8.73;2.10;;;9.20;99.90;;;;;;4886629;29;20282;-76
2023/11/16 16:36:55;;;;;;;8.70;3.60;;;9.10;99.90;;;;;;4881760;29;20227;-78
2023/11/16 16:39:23;;;;;;;7.03;2.43;;;9.00;99.90;;;;;;4881536;29;20551;-81
2023/11/16 16:41:52;;;;;;;5.47;2.70;;;9.20;99.90;;;;;;4882796;29;20290;-80
2023/11/16 16:44:19;;;;;;;3.93;2.17;;;9.30;99.90;;;;;;4888151;29;20317;-78
2023/11/16 16:46:47;;;;;;;7.43;2.83;;;9.20;99.90;;;;;;4881661;29;20210;-76
2023/11/16 16:49:16;;;;;;;8.37;3.77;;;9.20;99.90;;;;;;4881169;29;20203;-78
2023/11/16 16:51:43;;;;;;;8.10;2.90;;;9.30;99.90;;;;;;4889645;29;20206;-77
2023/11/16 16:54:12;;;;;;;5.40;2.53;;;9.40;99.90;;;;;;4890102;29;20703;-77
2023/11/16 16:56:39;;;;;;;7.37;3.03;;;9.40;99.90;;;;;;4882546;29;20306;-76
2023/11/16 16:59:06;;;;;;;7.40;2.80;;;9.40;99.90;;;;;;4881384;29;20199;-75
2023/11/16 17:01:33;;;;;;;6.53;2.40;;;9.40;99.90;;;;;;4881356;29;20641;-75
2023/11/16 17:04:01;;;;;;;4.37;2.50;;;9.30;99.90;;;;;;4889141;29;20298;-76
2023/11/16 17:06:30;;;;;;;5.17;2.57;;;9.40;99.90;;;;;;4881539;29;20222;-77
2023/11/16 17:08:57;;;;;;;8.03;2.80;;;9.40;99.90;;;;;;4890897;29;20207;-82
2023/11/16 17:11:25;;;;;;;10.57;3.07;;;9.50;99.90;;;;;;4881106;29;20306;-77
2023/11/16 17:13:54;;;;;;;9.27;3.27;;;9.60;99.90;;;;;;4880275;29;20269;-77
2023/11/16 17:16:21;;;;;;;7.33;2.87;;;9.50;99.90;;;;;;4880473;29;20688;-76
2023/11/16 17:18:48;;;;;;;7.67;3.20;;;9.40;99.90;;;;;;4881528;29;20207;-75
2023/11/16 17:21:16;;;;;;;10.10;3.63;;;9.40;99.90;;;;;;4899430;29;20219;-75
2023/11/16 17:23:45;;;;;;;8.80;3.37;;;9.20;99.90;;;;;;4893536;29;20213;-76
2023/11/16 17:26:12;;;;;;;11.80;3.13;;;9.20;99.90;;;;;;4880573;29;20675;-76
2023/11/16 17:28:39;;;;;;;7.27;2.77;;;9.30;99.90;;;;;;4880540;29;20684;-76
2023/11/16 17:31:07;;;;;;;9.10;2.90;;;9.30;99.90;;;;;;4880651;29;20215;-74
2023/11/16 17:33:35;;;;;;;5.77;2.63;;;9.30;99.90;;;;;;4891347;29;20243;-74
2023/11/16 17:36:04;;;;;;;6.57;3.13;;;9.30;99.90;;;;;;4880368;29;20218;-78
2023/11/16 17:38:33;;;;;;;8.57;2.70;;;9.30;99.90;;;;;;4880689;29;20208;-75
2023/11/16 17:41:05;;;;;;;8.97;3.27;;;9.30;99.90;;;;;;4880483;29;20211;-75
2023/11/16 17:43:34;;;;;;;9.23;3.30;;;9.20;99.90;;;;;;4891714;29;20211;-77
2023/11/16 17:46:02;;;;;;;6.20;2.60;;;9.10;99.90;;;;;;4880537;29;20208;-74
2023/11/16 17:48:30;;;;;;;7.27;2.60;;;9.00;99.90;;;;;;4893981;29;20210;-79
2023/11/16 17:50:57;;;;;;;8.83;3.07;;;8.90;99.90;;;;;;4880516;29;20288;-74
2023/11/16 17:53:25;;;;;;;6.47;2.77;;;8.90;99.90;;;;;;4883339;29;20239;-81
2023/11/16 17:55:53;;;;;;;8.10;2.60;;;8.90;99.90;;;;;;4883262;29;20352;-77
2023/11/16 17:58:22;;;;;;;8.23;3.20;;;8.90;99.90;;;;;;4888982;29;20658;-75
2023/11/16 18:00:50;;;;;;;5.47;2.60;;;8.80;99.90;;;;;;4898185;29;20301;-77
2023/11/16 18:03:17;;;;;;;7.37;2.53;;;8.60;99.90;;;;;;4886619;29;20218;-75
2023/11/16 18:05:44;;;;;;;8.30;2.93;;;8.70;99.90;;;;;;4878802;29;20240;-75
2023/11/16 18:08:11;;;;;;;6.43;2.37;;;8.80;99.90;;;;;;4888348;29;20217;-74
2023/11/16 18:10:43;;;;;;;14.33;3.43;;;8.80;99.90;;;;;;4879213;29;20203;-76
2023/11/16 18:13:16;;;;;;;6.20;3.03;;;9.00;99.90;;;;;;4878826;29;20239;-74
2023/11/16 18:15:44;;;;;;;8.83;3.33;;;9.00;99.90;;;;;;4890453;29;20239;-75
2023/11/16 18:18:12;;;;;;;7.47;2.70;;;9.00;99.90;;;;;;4878768;29;20215;-78
2023/11/16 18:20:40;;;;;;;7.67;2.90;;;9.00;99.90;;;;;;4879253;29;20571;-74
2023/11/16 18:23:07;;;;;;;5.73;2.40;;;9.00;99.90;;;;;;4878374;29;20222;-75
2023/11/16 18:25:35;;;;;;;6.87;3.23;;;9.10;99.90;;;;;;4887097;29;20535;-76
2023/11/16 18:28:02;;;;;;;10.10;3.97;;;9.00;99.90;;;;;;4884382;29;20245;-74
2023/11/16 18:30:30;;;;;;;9.00;2.73;;;8.90;99.90;;;;;;4896846;29;20293;-80
2023/11/16 18:32:58;;;;;;;6.80;3.10;;;9.10;99.90;;;;;;4897062;29;20729;-74
2023/11/16 18:35:26;;;;;;;5.60;2.90;;;9.10;99.90;;;;;;4893330;29;20241;-77
2023/11/16 18:37:53;;;;;;;14.43;3.67;;;9.10;99.90;;;;;;4888098;29;20211;-78
2023/11/16 18:40:23;;;;;;;9.40;3.33;;;9.20;99.90;;;;;;4890979;29;20211;-74
2023/11/16 18:42:51;;;;;;;10.33;3.57;;;9.30;99.90;;;;;;4878721;29;20227;-75
2023/11/16 18:45:18;;;;;;;9.93;3.40;;;9.30;99.90;;;;;;4878551;29;20231;-75
2023/11/16 18:47:45;;;;;;;9.13;3.23;;;9.10;99.90;;;;;;4888676;29;20317;-75
2023/11/16 18:50:14;;;;;;;9.90;3.50;;;9.10;99.90;;;;;;4897120;29;20297;-74
2023/11/16 18:52:41;;;;;;;9.73;4.17;;;9.10;99.90;;;;;;4886588;29;20215;-75
2023/11/16 18:55:08;;;;;;;7.50;3.53;;;9.20;99.90;;;;;;4879216;29;20345;-75
2023/11/16 18:57:38;;;;;;;6.23;3.33;;;9.10;99.90;;;;;;4889899;29;20216;-76
2023/11/16 19:00:09;;;;;;;7.20;3.43;;;9.10;99.90;;;;;;4878589;29;20689;-74
2023/11/16 19:02:36;;;;;;;9.07;4.13;;;9.10;99.90;;;;;;4878103;29;20211;-75
2023/11/16 19:05:06;;;;;;;8.97;3.80;;;9.20;99.90;;;;;;4881632;29;20318;-76
2023/11/16 19:07:35;;;;;;;12.87;4.93;;;9.20;99.90;;;;;;4890463;29;20218;-76
2023/11/16 19:10:04;;;;;;;11.77;5.13;;;9.20;99.90;;;;;;4891964;29;20203;-75
2023/11/16 19:12:32;;;;;;;18.33;5.37;;;9.30;99.90;;;;;;4889176;29;20207;-75
2023/11/16 19:15:01;;;;;;;11.40;4.90;;;9.20;99.90;;;;;;4889468;29;20321;-79
2023/11/16 19:17:28;;;;;;;10.97;4.87;;;9.10;99.90;;;;;;4890018;29;20298;-74
2023/11/16 19:19:56;;;;;;;11.90;4.97;;;9.30;99.90;;;;;;4878319;29;20687;-77
2023/11/16 19:22:24;;;;;;;10.33;4.57;;;9.40;99.90;;;;;;4881120;29;20217;-74
2023/11/16 19:24:53;;;;;;;9.07;3.63;;;9.40;99.90;;;;;;4891225;29;20644;-77
2023/11/16 19:27:21;;;;;;;9.20;4.20;;;9.30;99.90;;;;;;4890072;29;20240;-73
2023/11/16 19:29:48;;;;;;;11.93;4.47;;;9.40;99.90;;;;;;4893854;29;20214;-77
2023/11/16 19:32:16;;;;;;;10.47;4.63;;;9.40;99.90;;;;;;4898298;29;20300;-77
2023/11/16 19:34:43;;;;;;;14.40;5.10;;;9.40;99.90;;;;;;4883808;29;20238;-76
2023/11/16 19:37:09;;;;;;;10.77;4.27;;;9.40;99.90;;;;;;4887475;29;20214;-79
2023/11/16 19:39:42;;;;;;;12.67;5.30;;;9.40;99.90;;;;;;4885720;29;20234;-76
2023/11/16 19:42:11;;;;;;;10.33;5.27;;;9.40;99.90;;;;;;4894315;29;20214;-79
2023/11/16 19:44:39;;;;;;;13.37;4.50;;;9.30;99.90;;;;;;4894052;29;20241;-74
2023/11/16 19:47:08;;;;;;;11.10;4.87;;;9.40;99.90;;;;;;4895907;29;20215;-74
2023/11/16 19:49:35;;;;;;;13.33;5.57;;;9.20;99.90;;;;;;4897312;29;20207;-76
2023/11/16 19:52:02;;;;;;;13.60;5.47;;;9.10;99.90;;;;;;4900393;29;20299;-76
2023/11/16 19:54:29;;;;;;;13.60;5.10;;;9.20;99.90;;;;;;4882806;29;20659;-78
2023/11/16 19:56:56;;;;;;;12.00;6.13;;;9.30;99.90;;;;;;4882629;29;20306;-75
2023/11/16 19:59:25;;;;;;;12.97;5.10;;;9.30;99.90;;;;;;4887746;29;20673;-78
2023/11/16 20:01:52;;;;;;;14.03;5.67;;;9.20;99.90;;;;;;4887521;29;20747;-74
2023/11/16 20:04:18;;;;;;;14.60;5.37;;;9.30;99.90;;;;;;4881481;29;20231;-75
2023/11/16 20:06:45;;;;;;;15.40;5.20;;;9.20;99.90;;;;;;4887238;29;20215;-79
2023/11/16 20:09:14;;;;;;;15.20;5.43;;;9.30;99.90;;;;;;4887070;29;20211;-77
2023/11/16 20:11:45;;;;;;;12.07;5.50;;;9.20;99.90;;;;;;4900593;29;20214;-77
2023/11/16 20:14:12;;;;;;;20.23;5.97;;;9.10;99.90;;;;;;4886470;29;20258;-75
2023/11/16 20:16:40;;;;;;;11.73;5.37;;;9.20;99.90;;;;;;4882181;29;20217;-77
2023/11/16 20:19:08;;;;;;;15.00;5.83;;;9.00;99.90;;;;;;4893572;29;20202;-76
2023/11/16 20:21:37;;;;;;;14.37;5.33;;;9.00;99.90;;;;;;4888790;29;20214;-75
2023/11/16 20:24:04;;;;;;;17.20;6.30;;;9.00;99.90;;;;;;4887497;29;20290;-77
2023/11/16 20:26:31;;;;;;;16.63;6.33;;;9.00;99.90;;;;;;4899669;29;20678;-76
2023/11/16 20:29:04;;;;;;;17.07;6.17;;;8.90;99.90;;;;;;4896611;29;20210;-76
2023/11/16 20:31:32;;;;;;;13.77;5.77;;;9.00;99.90;;;;;;4881635;29;20211;-76
2023/11/16 20:34:01;;;;;;;17.43;6.33;;;9.10;99.90;;;;;;4882842;29;20235;-76
2023/11/16 20:36:29;;;;;;;13.83;5.87;;;9.20;99.90;;;;;;4881865;29;20302;-76
2023/11/16 20:38:56;;;;;;;12.07;5.73;;;9.20;99.90;;;;;;4892156;29;20295;-77
2023/11/16 20:41:23;;;;;;;14.77;5.73;;;9.10;99.90;;;;;;4881896;29;20215;-78
2023/11/16 20:43:51;;;;;;;12.80;6.07;;;9.20;99.90;;;;;;4881391;29;20215;-75
2023/11/16 20:46:19;;;;;;;12.90;5.50;;;9.20;99.90;;;;;;4881433;29;20217;-75
2023/11/16 20:48:46;;;;;;;17.10;5.57;;;9.20;99.90;;;;;;4881345;29;20215;-75
2023/11/16 20:51:16;;;;;;;9.93;5.27;;;9.10;99.90;;;;;;4892971;29;20206;-76
2023/11/16 20:53:43;;;;;;;14.80;5.67;;;9.10;99.90;;;;;;4881399;29;20235;-76
2023/11/16 20:56:10;;;;;;;15.47;6.40;;;9.00;99.90;;;;;;4881136;29;20666;-76
2023/11/16 20:58:37;;;;;;;14.70;5.70;;;9.10;99.90;;;;;;4887214;29;20203;-75
2023/11/16 21:01:06;;;;;;;15.40;6.13;;;9.00;99.90;;;;;;4899216;29;20210;-76
2023/11/16 21:03:33;;;;;;;12.27;6.07;;;9.10;99.90;;;;;;4893817;29;20223;-74
2023/11/16 21:06:00;;;;;;;16.97;6.43;;;9.10;99.90;;;;;;4880731;29;20234;-75
2023/11/16 21:08:29;;;;;;;13.43;6.50;;;9.00;99.90;;;;;;4892710;29;20302;-75
2023/11/16 21:10:56;;;;;;;10.13;5.80;;;9.10;99.90;;;;;;4881235;29;20742;-75
2023/11/16 21:13:22;;;;;;;14.20;5.93;;;9.10;99.90;;;;;;4899398;29;20301;-75
2023/11/16 21:15:49;;;;;;;13.83;6.17;;;9.10;99.90;;;;;;4886826;29;20610;-75
2023/11/16 21:18:16;;;;;;;16.57;6.30;;;9.10;99.90;;;;;;4899216;29;20662;-75
2023/11/16 21:20:44;;;;;;;14.67;6.27;;;9.00;99.90;;;;;;4885382;29;20290;-74
2023/11/16 21:23:11;;;;;;;17.87;6.03;;;9.00;99.90;;;;;;4880835;29;20218;-74
2023/11/16 21:25:40;;;;;;;14.80;5.77;;;9.10;99.90;;;;;;4880618;29;20242;-75
2023/11/16 21:28:07;;;;;;;13.33;5.77;;;9.10;99.90;;;;;;4888968;29;20207;-73
2023/11/16 21:30:34;;;;;;;14.37;6.20;;;9.20;99.90;;;;;;4896071;29;20217;-74
2023/11/16 21:33:02;;;;;;;17.10;6.47;;;9.20;99.90;;;;;;4880832;29;20211;-73
2023/11/16 21:35:30;;;;;;;13.20;6.10;;;9.20;99.90;;;;;;4892538;29;20634;-74
2023/11/16 21:37:57;;;;;;;15.50;6.47;;;9.20;99.90;;;;;;4880339;29;20211;-74
2023/11/16 21:40:24;;;;;;;12.77;6.20;;;9.10;99.90;;;;;;4880505;29;20294;-74
2023/11/16 21:42:52;;;;;;;18.37;6.40;;;9.10;99.90;;;;;;4888869;29;20250;-74
2023/11/16 21:45:19;;;;;;;14.23;5.67;;;9.20;99.90;;;;;;4884440;29;20739;-74
2023/11/16 21:47:46;;;;;;;14.60;6.80;;;9.20;99.90;;;;;;4888053;29;20222;-74
2023/11/16 21:50:16;;;;;;;19.47;6.60;;;9.30;99.90;;;;;;4879566;29;20207;-73
2023/11/16 21:52:42;;;;;;;21.63;7.60;;;9.20;99.90;;;;;;4883877;29;20207;-76
2023/11/16 21:55:10;;;;;;;10.93;6.10;;;9.30;99.90;;;;;;4887126;29;20242;-74
2023/11/16 21:57:36;;;;;;;16.47;6.57;;;9.30;99.90;;;;;;4882928;29;20650;-74
2023/11/16 22:00:06;;;;;;;12.67;6.13;;;9.30;99.90;;;;;;4881111;29;20241;-78
2023/11/16 22:02:34;;;;;;;12.70;5.80;;;9.40;99.90;;;;;;4879293;29;20208;-73
2023/11/16 22:05:10;;;;;;;13.77;5.77;;;9.40;99.90;;;;;;4879615;29;20322;-74
2023/11/16 22:07:38;;;;;;;11.97;6.13;;;9.20;99.90;;;;;;4892412;29;20213;-73
2023/11/16 22:10:06;;;;;;;15.33;5.77;;;9.20;99.90;;;;;;4898337;29;20293;-74
2023/11/16 22:12:33;;;;;;;12.97;5.77;;;9.40;99.90;;;;;;4884436;29;20694;-74
2023/11/16 22:15:00;;;;;;;16.40;5.33;;;9.30;99.90;;;;;;4882710;29;20239;-75
2023/11/16 22:17:29;;;;;;;11.93;6.33;;;9.50;99.90;;;;;;4878893;29;20217;-74